Terminal Aerodrome Forecast
Issued by NWS Buffalo, NY

Home | Current Version | Previous Version | Text Only | Print | Product List | Glossary On
Versions: 1 2 3 4 5 6 7 8 9 10 11 12 13 14 15 16 17 18 19 20 21 22 23 24 25 26 27 28 29
000
FTUS41 KBUF 292300
TAFART
TAF
KART 292337Z 3000/3024 24005KT P6SM SKC
     FM300900 17005KT P6SM SCT100 BKN110
     FM301100 18005KT P6SM BKN070 BKN080
     FM301200 19005KT P6SM SCT040 BKN045
     FM301700 21011KT P6SM VCSH BKN090 BKN100
     FM302000 22013KT 6SM -SHRA BKN070 OVC100=

USA.gov is the U.S. government's official web portal to all federal, state and local government web resources and services.